Latest Coastal Weather Observations for Lord Howe Island

IDN60701

Issued at 1:32 pm EST Friday 29 September 2023 (issued every 10 minutes, with the page automatically refreshed every 10 minutes)

About coastal observations | Map of coastal stations | Coastal observations for NSW | Marine services | Other Formats
Station Details ID: 200839 Name: LORD HOWE ISLAND AERO Lat: -31.54 Lon: 159.08 Height: 5.0 m
Data from the previous 72 hours. | See also: Recent months at Lord Howe Island

Observations are collected in the New South Wales time zone (Eastern Standard Time) which includes daylight savings in the summer period. Therefore 'Rain since 9am' totals and other values are based on the New South Wales time zone, which may differ from local time.

Date/Time
EST
Wind Sea
Height
m
Swell Vis
km
Cloud Weather Temp
°C
Press
MSL
hPa
Rain since
9am
mm
Dir  Spd
kts
Gust
kts
Height
m
Period
s
Dir
29/01:30pm WSW 11 15 - - - - 10 Partly cloudy - 20.1 1022.9 0.0
29/01:00pm WSW 11 16 - - - - 10 Partly cloudy - 20.0 1023.4 0.0
29/12:30pm WSW 12 16 - - - - 10 Partly cloudy - 20.0 1023.9 0.0
29/12:00pm WSW 11 15 - - - - 10 Partly cloudy - 19.6 1024.5 0.0
29/11:30am WSW 12 16 - - - - 10 Partly cloudy - 19.9 1024.9 0.0
29/11:00am WSW 9 13 - - - - 10 Partly cloudy - 19.4 1025.2 0.0
29/10:30am WSW 11 15 - - - - 10 - - 19.8 1025.4 0.0
29/10:00am WSW 10 14 - - - - 10 Partly cloudy - 19.7 1025.6 0.0
29/09:30am WSW 11 16 - - - - 10 Partly cloudy - 19.1 1025.7 0.0
29/09:00am WSW 9 12 - - - - 10 Partly cloudy - 19.1 1025.8 0.0
29/08:30am WSW 9 13 - - - - 10 Partly cloudy - 19.3 1025.9 0.2
29/08:00am SW 8 12 - - - - 10 Partly cloudy - 19.2 1025.9 0.2
29/07:30am WSW 10 15 - - - - 10 Partly cloudy - 18.7 1025.8 0.2
29/07:00am WSW 8 12 - - - - 10 - - 18.6 1025.7 0.2
29/06:30am WSW 9 12 - - - - 10 Partly cloudy - 18.1 1025.6 0.2
29/06:00am SW 7 11 - - - - 10 Partly cloudy - 18.0 1025.3 0.2
29/05:30am WSW 8 12 - - - - 10 Mostly cloudy - 17.8 1025.2 0.2
29/05:00am SW 7 11 - - - - 10 Partly cloudy - 17.7 1025.1 0.2
29/04:30am WSW 9 12 - - - - 10 Partly cloudy - 17.9 1024.8 0.2
29/04:00am WSW 10 13 - - - - 10 Partly cloudy - 17.8 1024.6 0.2
29/03:30am SW 6 10 - - - - 10 Partly cloudy - 17.7 1024.5 0.2
29/03:00am SSW 4 8 - - - - 10 Cloudy - 16.8 1024.6 0.2
29/02:30am SSW 3 5 - - - - 10 Cloudy - 16.6 1024.8 0.2
29/02:00am S 1 4 - - - - 10 Cloudy - 14.8 1025.3 0.2
29/01:30am S 1 4 - - - - 10 Partly cloudy - 14.3 1025.5 0.2
29/01:00am SSE 3 4 - - - - 10 Partly cloudy - 15.4 1025.8 0.2
29/12:30am SE 3 5 - - - - 10 - - 15.9 1026.0 0.2
29/12:00am SSW 2 5 - - - - 10 Partly cloudy - 16.1 1026.1 0.2
 
Date/Time
EST
Wind Sea
Height
m
Swell Vis
km
Cloud Weather Temp
°C
Press
MSL
hPa
Rain since
9am
mm
Dir  Spd
kts
Gust
kts
Height
m
Period
s
Dir
28/11:30pm SSW 4 7 - - - - 10 Mostly cloudy - 16.6 1026.2 0.2
28/11:00pm SSE 1 5 - - - - 10 Partly cloudy - 14.8 1026.3 0.2
28/10:30pm SE 3 4 - - - - 10 - - 15.5 1026.0 0.2
28/10:00pm SSW 1 6 - - - - 10 - - 14.9 1026.1 0.2
28/09:30pm SE 3 6 - - - - 10 Partly cloudy - 16.2 1026.2 0.2
28/09:00pm ESE 6 10 - - - - 10 Partly cloudy - 17.3 1026.1 0.2
28/08:30pm S 4 8 - - - - 10 Mostly clear - 16.9 1026.0 0.2
28/08:00pm SSW 6 11 - - - - 10 Partly cloudy - 17.6 1025.9 0.2
28/07:30pm SSW 6 10 - - - - 10 Cloudy - 17.5 1025.8 0.2
28/07:00pm SSE 4 8 - - - - 10 Cloudy - 17.4 1025.6 0.2
28/06:30pm S 4 8 - - - - 10 Cloudy - 17.6 1025.5 0.2
28/06:00pm SSW 9 14 - - - - 10 Cloudy - 17.7 1025.0 0.2
28/05:30pm S 6 10 - - - - 10 Cloudy - 17.7 1024.6 0.2
28/05:00pm SSW 9 14 - - - - 10 Cloudy - 17.7 1024.3 0.2
28/04:30pm SSW 9 15 - - - - 10 Cloudy - 17.9 1024.0 0.2
28/04:00pm SSW 9 16 - - - - 10 Partly cloudy - 18.1 1024.0 0.2
28/03:30pm SSW 10 17 - - - - 10 Cloudy - 18.6 1023.9 0.2
28/03:00pm SSW 11 18 - - - - 10 Cloudy - 18.5 1023.8 0.2
28/02:30pm SW 9 16 - - - - 10 Cloudy - 19.2 1023.7 0.2
28/02:00pm SSW 9 15 - - - - 10 Cloudy - 19.3 1023.9 0.2
28/01:30pm SSW 8 13 - - - - 10 Partly cloudy - 19.2 1024.0 0.2
28/01:00pm SSW 9 12 - - - - 10 - - 19.8 1024.0 0.2
28/12:30pm SW 9 14 - - - - 10 Partly cloudy - 19.5 1024.2 0.2
28/12:00pm SW 8 12 - - - - 10 Mostly clear - 19.5 1024.5 0.2
28/11:30am SSW 8 13 - - - - 10 Partly cloudy - 19.7 1024.8 0.2
28/11:00am SSW 9 16 - - - - 10 Partly cloudy - 19.4 1025.3 0.2
28/10:30am SSW 9 15 - - - - 10 Mostly cloudy - 19.4 1025.5 0.2
28/10:00am SSW 9 13 - - - - 10 Mostly cloudy - 19.2 1025.6 0.2
28/09:30am SSW 9 14 - - - - 10 Mostly cloudy - 19.1 1025.4 0.2
28/09:00am SSW 7 13 - - - - 10 Mostly cloudy - 18.8 1025.4 0.0
28/08:30am SSW 6 11 - - - - 10 Mostly clear - 18.3 1025.4 1.4
28/08:00am SSW 6 12 - - - - 10 Partly cloudy - 18.3 1025.0 -
28/07:30am SSW 8 14 - - - - 10 Partly cloudy - 17.6 1025.0 -
28/07:00am S 6 14 - - - - 10 - - 17.3 1024.7 -
28/06:30am SSW 4 10 - - - - 10 Partly cloudy - 16.7 1024.2 -
28/06:00am SW 5 11 - - - - 10 Partly cloudy - 16.5 1023.7 -
28/05:30am N 1 5 - - - - 10 - - 14.5 1023.2 -
28/05:00am SW 3 4 - - - - 10 - - 13.3 1022.8 -
28/04:30am E 1 4 - - - - 10 - - 13.5 1022.4 -
28/04:00am CALM 0 0 - - - - 10 - - 13.1 1021.9 -
28/03:30am CALM 0 0 - - - - 10 Partly cloudy - 12.9 1021.4 -
28/03:00am CALM 0 0 - - - - 10 Partly cloudy - 13.6 1021.1 -
28/02:30am E 2 3 - - - - 10 - - 13.9 1020.8 0.0
28/02:00am ESE 2 3 - - - - 10 - - 15.1 1020.8 -
28/01:30am SE 5 7 - - - - 10 Partly cloudy - 16.5 1020.9 -
28/01:00am SE 6 9 - - - - 10 Partly cloudy - 17.3 1021.2 -
28/12:30am ESE 6 8 - - - - 10 Partly cloudy - 17.0 1021.3 -
28/12:00am SE 6 9 - - - - 10 Partly cloudy - 17.4 1021.3 -
 
Date/Time
EST
Wind Sea
Height
m
Swell Vis
km
Cloud Weather Temp
°C
Press
MSL
hPa
Rain since
9am
mm
Dir  Spd
kts
Gust
kts
Height
m
Period
s
Dir
27/11:30pm SE 5 7 - - - - 10 Mostly cloudy - 17.2 1021.4 -
27/11:00pm ESE 4 5 - - - - 10 Partly cloudy - 17.2 1021.4 -
27/10:30pm SE 4 7 - - - - 10 Partly cloudy - 17.5 1021.2 -
27/10:00pm NNW 2 5 - - - - 10 Cloudy - 17.5 1021.0 -
27/09:30pm N 2 4 - - - - 10 Cloudy - 17.4 1020.8 -
27/09:00pm ENE 2 4 - - - - 10 Partly cloudy - 17.5 1020.9 -
27/08:30pm SSW 2 6 - - - - 10 - - 17.5 1020.7 -
27/08:00pm SSW 7 12 - - - - 10 Partly cloudy - 18.5 1020.4 -
27/07:56pm SSW 7 12 - - - - 10 Partly cloudy - 18.5 1020.5 -
27/07:30pm SW 8 14 - - - - 10 Partly cloudy - 18.8 1020.5 -
27/07:00pm SW 8 13 - - - - 10 Partly cloudy - 19.0 1020.2 -
27/06:49pm SW 6 10 - - - - 10 Partly cloudy - 18.9 1020.0 -
27/06:43pm WSW 7 9 - - - - 10 - - 18.7 1020.0 -
27/06:32pm SSW 9 14 - - - - 5 Partly cloudy - 18.4 1019.8 1.2
27/06:30pm SSW 10 14 - - - - 6 Partly cloudy - 18.3 1019.8 0.6
27/06:00pm WSW 11 15 - - - - 10 Partly cloudy - 20.0 1019.3 0.0
27/05:30pm WSW 9 12 - - - - 10 Mostly cloudy - 19.9 1019.1 0.0
27/05:00pm WSW 11 14 - - - - 10 Partly cloudy - 19.9 1018.8 0.0
27/04:43pm WSW 12 15 - - - - 10 Partly cloudy - 20.2 1018.7 0.0
27/04:30pm W 13 16 - - - - 10 Partly cloudy - 20.6 1018.5 0.0
27/04:23pm WSW 12 15 - - - - 10 Partly cloudy - 20.7 1018.5 0.0
27/04:00pm W 13 15 - - - - 10 Mostly clear - 20.4 1018.4 0.0
27/03:30pm W 13 16 - - - - 10 Mostly clear - 20.5 1018.2 0.0
27/03:00pm W 15 17 - - - - 10 Mostly clear - 22.1 1018.0 0.0
27/02:30pm W 12 17 - - - - 10 Mostly cloudy - 21.6 1018.3 0.0
27/02:00pm W 11 17 - - - - 10 Mostly clear - 22.0 1018.6 0.0
27/01:30pm W 10 14 - - - - 10 Mostly clear - 21.4 1018.8 0.0
27/01:00pm W 11 16 - - - - 10 Mostly clear - 21.8 1019.1 0.0
27/12:30pm WNW 11 16 - - - - 10 Mostly clear - 21.6 1019.4 0.0
27/12:00pm WNW 11 15 - - - - 10 Mostly clear - 21.6 1019.6 0.0
27/11:30am WNW 11 18 - - - - 10 Cloudy - 21.6 1020.0 0.0
27/11:00am WNW 11 14 - - - - 10 Mostly clear - 20.0 1020.3 0.0
27/10:30am WNW 13 18 - - - - 10 Mostly clear - 20.5 1020.4 0.0
27/10:00am WNW 12 18 - - - - 10 Mostly clear - 21.2 1020.6 0.0
27/09:30am WNW 13 17 - - - - 10 Mostly clear - 20.9 1021.0 0.0
27/09:00am W 13 19 - - - - 10 Mostly clear - 20.4 1021.0 0.0
27/08:30am W 13 19 - - - - 10 Cloudy Showers 19.0 1021.1 0.2
27/08:00am WSW 11 16 - - - - 8 Partly cloudy - 18.1 1021.3 0.2
27/07:30am W 12 17 - - - - 10 Partly cloudy - 20.1 1021.2 0.0
27/07:00am W 9 15 - - - - 10 Partly cloudy - 19.6 1020.9 0.0
27/06:30am WNW 11 16 - - - - 10 - - 19.3 1020.5 0.0
27/06:00am WNW 8 12 - - - - 10 Partly cloudy - 18.6 1020.3 0.0
27/05:30am WNW 10 14 - - - - 10 Cloudy - 18.4 1020.4 0.0
27/05:00am WNW 10 14 - - - - 10 Partly cloudy - 18.3 1020.3 0.0
27/04:30am WNW 9 12 - - - - 10 Partly cloudy - 18.3 1020.3 0.0
27/04:00am WNW 9 13 - - - - 10 Partly cloudy - 18.0 1019.7 0.0
27/03:30am WNW 8 11 - - - - 10 Partly cloudy - 17.8 1019.6 0.0
27/03:00am WNW 7 11 - - - - 10 Partly cloudy - 17.8 1019.5 0.0
27/02:30am WNW 7 11 - - - - 10 Partly cloudy - 17.6 1019.7 0.0
27/02:00am WNW 7 10 - - - - 10 Partly cloudy - 17.8 1019.8 0.0
27/01:30am WNW 4 6 - - - - 10 Partly cloudy - 17.2 1020.1 0.0
27/01:00am WNW 5 7 - - - - 10 Partly cloudy - 17.2 1020.2 0.0
27/12:30am W 7 10 - - - - 10 Partly cloudy - 17.7 1020.7 0.0
27/12:00am W 7 10 - - - - 10 Partly cloudy - 17.5 1020.9 0.0
 
Date/Time
EST
Wind Sea
Height
m
Swell Vis
km
Cloud Weather Temp
°C
Press
MSL
hPa
Rain since
9am
mm
Dir  Spd
kts
Gust
kts
Height
m
Period
s
Dir
26/11:30pm W 9 11 - - - - 10 Cloudy - 17.5 1021.3 0.0
26/11:00pm W 6 8 - - - - 10 Partly cloudy - 17.1 1021.2 0.0
26/10:30pm WNW 3 5 - - - - 10 Partly cloudy - 16.1 1021.4 0.0
26/10:00pm W 7 9 - - - - 10 Partly cloudy - 16.9 1021.4 0.0
26/09:30pm WSW 6 9 - - - - 10 Partly cloudy - 17.0 1021.6 0.0
26/09:00pm WSW 5 8 - - - - 10 Partly cloudy - 16.6 1021.7 0.0
26/08:30pm SW 5 8 - - - - 10 - - 16.7 1021.8 0.0
26/08:00pm SSW 6 7 - - - - 10 - - 15.9 1021.8 0.0
26/07:30pm SW 5 7 - - - - 10 - - 15.8 1021.6 0.0
26/07:00pm SW 5 8 - - - - 10 - - 16.4 1021.5 0.0
26/06:30pm SW 5 7 - - - - 10 - - 16.2 1021.3 0.0
26/06:00pm SW 6 8 - - - - 10 Partly cloudy - 16.4 1021.2 0.0
26/05:30pm SW 6 9 - - - - 10 Partly cloudy - 16.9 1021.0 0.0
26/05:00pm SW 7 10 - - - - 10 Partly cloudy - 17.2 1020.8 0.0
26/04:30pm SW 7 12 - - - - 10 Partly cloudy - 17.5 1020.7 0.0
26/04:00pm SW 8 12 - - - - 10 Partly cloudy - 17.8 1020.6 0.0
26/03:30pm WSW 8 12 - - - - 10 Partly cloudy - 18.1 1020.5 0.0
26/03:00pm WSW 9 12 - - - - 10 - - 18.5 1020.5 0.0
26/02:30pm WSW 9 11 - - - - 10 - - 18.6 1020.5 0.0
26/02:00pm W 9 13 - - - - 10 - - 19.0 1020.8 0.0
26/01:30pm WSW 9 12 - - - - 10 - - 18.5 1021.2 0.0

Other formats

Comma delimited format used in spreadsheet applications
http://www.bom.gov.au/fwo/IDN60701/IDN60701.94995.axf

JavaScript Object Notation format (JSON) in row-major order
http://www.bom.gov.au/fwo/IDN60701/IDN60701.94995.json

Data quality

Most of these data are generated automatically and are frequently updated. Quality checks on data are not normally performed. It is possible for incorrect values to appear. Refer to information at About Latest Weather Observations and please check the disclaimer before using these data.